sensor_id;sensor_type;location;lat;lon;timestamp;P1;durP1;ratioP1;P2;durP2;ratioP2
49948;SDS011;35840;45.982;8.890;2022-12-29T00:01:58;17.38;;;9.63;;
49948;SDS011;35840;45.982;8.890;2022-12-29T00:04:25;20.23;;;11.68;;
49948;SDS011;35840;45.982;8.890;2022-12-29T00:06:52;18.25;;;9.63;;
49948;SDS011;35840;45.982;8.890;2022-12-29T00:09:20;20.58;;;11.40;;
49948;SDS011;35840;45.982;8.890;2022-12-29T00:11:46;22.35;;;11.35;;
49948;SDS011;35840;45.982;8.890;2022-12-29T00:14:13;17.40;;;9.77;;
49948;SDS011;35840;45.982;8.890;2022-12-29T00:16:59;12.70;;;9.68;;
49948;SDS011;35840;45.982;8.890;2022-12-29T00:19:25;16.48;;;9.73;;
49948;SDS011;35840;45.982;8.890;2022-12-29T00:22:12;13.68;;;8.77;;
49948;SDS011;35840;45.982;8.890;2022-12-29T00:24:59;15.05;;;9.43;;
49948;SDS011;35840;45.982;8.890;2022-12-29T00:27:45;15.40;;;9.50;;
49948;SDS011;35840;45.982;8.890;2022-12-29T00:30:33;11.65;;;7.70;;
49948;SDS011;35840;45.982;8.890;2022-12-29T00:33:21;13.13;;;8.23;;
49948;SDS011;35840;45.982;8.890;2022-12-29T00:38:40;14.93;;;8.30;;
49948;SDS011;35840;45.982;8.890;2022-12-29T00:41:29;15.10;;;8.05;;
49948;SDS011;35840;45.982;8.890;2022-12-29T00:44:15;16.73;;;8.30;;
49948;SDS011;35840;45.982;8.890;2022-12-29T00:46:43;16.08;;;9.27;;
49948;SDS011;35840;45.982;8.890;2022-12-29T00:49:11;21.92;;;11.05;;
49948;SDS011;35840;45.982;8.890;2022-12-29T00:52:04;17.05;;;9.63;;
49948;SDS011;35840;45.982;8.890;2022-12-29T00:54:33;14.45;;;9.27;;
49948;SDS011;35840;45.982;8.890;2022-12-29T00:57:02;15.38;;;9.23;;
49948;SDS011;35840;45.982;8.890;2022-12-29T00:59:29;16.67;;;9.00;;
49948;SDS011;35840;45.982;8.890;2022-12-29T01:01:56;17.17;;;9.82;;
49948;SDS011;35840;45.982;8.890;2022-12-29T01:04:25;16.20;;;9.30;;
49948;SDS011;35840;45.982;8.890;2022-12-29T01:06:52;17.77;;;9.52;;
49948;SDS011;35840;45.982;8.890;2022-12-29T01:09:19;14.75;;;9.48;;
49948;SDS011;35840;45.982;8.890;2022-12-29T01:12:07;15.32;;;8.95;;
49948;SDS011;35840;45.982;8.890;2022-12-29T01:14:34;16.38;;;9.00;;
49948;SDS011;35840;45.982;8.890;2022-12-29T01:17:02;13.50;;;8.70;;
49948;SDS011;35840;45.982;8.890;2022-12-29T01:19:31;14.02;;;9.27;;
49948;SDS011;35840;45.982;8.890;2022-12-29T01:21:59;10.50;;;7.93;;
49948;SDS011;35840;45.982;8.890;2022-12-29T01:24:27;14.88;;;8.13;;
49948;SDS011;35840;45.982;8.890;2022-12-29T01:26:54;12.38;;;7.80;;
49948;SDS011;35840;45.982;8.890;2022-12-29T01:29:21;13.70;;;8.38;;
49948;SDS011;35840;45.982;8.890;2022-12-29T01:31:48;14.48;;;7.93;;
49948;SDS011;35840;45.982;8.890;2022-12-29T01:34:16;12.10;;;8.05;;
49948;SDS011;35840;45.982;8.890;2022-12-29T01:36:44;13.60;;;8.05;;
49948;SDS011;35840;45.982;8.890;2022-12-29T01:39:11;12.85;;;8.40;;
49948;SDS011;35840;45.982;8.890;2022-12-29T01:41:39;16.20;;;8.98;;
49948;SDS011;35840;45.982;8.890;2022-12-29T01:47:10;14.05;;;8.27;;
49948;SDS011;35840;45.982;8.890;2022-12-29T01:49:37;15.20;;;9.05;;
49948;SDS011;35840;45.982;8.890;2022-12-29T01:52:05;15.52;;;8.25;;
49948;SDS011;35840;45.982;8.890;2022-12-29T01:54:36;14.57;;;8.25;;
49948;SDS011;35840;45.982;8.890;2022-12-29T01:57:11;16.13;;;8.77;;
49948;SDS011;35840;45.982;8.890;2022-12-29T01:59:46;18.13;;;9.35;;
49948;SDS011;35840;45.982;8.890;2022-12-29T02:02:17;17.15;;;9.85;;
49948;SDS011;35840;45.982;8.890;2022-12-29T02:04:44;16.05;;;9.98;;
49948;SDS011;35840;45.982;8.890;2022-12-29T02:07:18;13.55;;;8.65;;
49948;SDS011;35840;45.982;8.890;2022-12-29T02:09:46;14.25;;;10.25;;
49948;SDS011;35840;45.982;8.890;2022-12-29T02:12:16;16.38;;;9.48;;
49948;SDS011;35840;45.982;8.890;2022-12-29T02:14:44;16.83;;;9.88;;
49948;SDS011;35840;45.982;8.890;2022-12-29T02:17:15;14.85;;;9.35;;
49948;SDS011;35840;45.982;8.890;2022-12-29T02:23:04;14.43;;;9.55;;
49948;SDS011;35840;45.982;8.890;2022-12-29T02:25:58;15.00;;;9.95;;
49948;SDS011;35840;45.982;8.890;2022-12-29T02:37:13;13.55;;;9.13;;
49948;SDS011;35840;45.982;8.890;2022-12-29T02:40:14;14.80;;;9.90;;
49948;SDS011;35840;45.982;8.890;2022-12-29T02:45:28;15.85;;;9.95;;
49948;SDS011;35840;45.982;8.890;2022-12-29T02:50:34;14.68;;;9.48;;
49948;SDS011;35840;45.982;8.890;2022-12-29T02:53:05;17.00;;;10.07;;
49948;SDS011;35840;45.982;8.890;2022-12-29T02:55:35;18.05;;;10.55;;
49948;SDS011;35840;45.982;8.890;2022-12-29T03:00:37;15.27;;;9.85;;
49948;SDS011;35840;45.982;8.890;2022-12-29T03:03:16;18.30;;;10.68;;
49948;SDS011;35840;45.982;8.890;2022-12-29T03:11:09;14.18;;;9.93;;
49948;SDS011;35840;45.982;8.890;2022-12-29T03:14:14;17.33;;;10.73;;
49948;SDS011;35840;45.982;8.890;2022-12-29T03:17:15;17.00;;;10.63;;
49948;SDS011;35840;45.982;8.890;2022-12-29T03:20:10;19.63;;;11.18;;
49948;SDS011;35840;45.982;8.890;2022-12-29T03:22:47;15.85;;;10.38;;
49948;SDS011;35840;45.982;8.890;2022-12-29T03:25:33;15.52;;;9.63;;
49948;SDS011;35840;45.982;8.890;2022-12-29T03:28:12;16.20;;;9.57;;
49948;SDS011;35840;45.982;8.890;2022-12-29T03:30:46;13.75;;;9.73;;
49948;SDS011;35840;45.982;8.890;2022-12-29T03:33:17;16.70;;;10.32;;
49948;SDS011;35840;45.982;8.890;2022-12-29T03:35:48;16.70;;;10.32;;
49948;SDS011;35840;45.982;8.890;2022-12-29T03:38:25;14.38;;;9.43;;
49948;SDS011;35840;45.982;8.890;2022-12-29T03:40:56;16.83;;;9.38;;
49948;SDS011;35840;45.982;8.890;2022-12-29T03:43:27;14.38;;;9.45;;
49948;SDS011;35840;45.982;8.890;2022-12-29T03:45:56;23.52;;;10.00;;
49948;SDS011;35840;45.982;8.890;2022-12-29T03:48:23;16.30;;;9.93;;
49948;SDS011;35840;45.982;8.890;2022-12-29T03:50:52;15.85;;;9.18;;
49948;SDS011;35840;45.982;8.890;2022-12-29T03:53:21;13.88;;;9.85;;
49948;SDS011;35840;45.982;8.890;2022-12-29T03:55:49;14.70;;;8.48;;
49948;SDS011;35840;45.982;8.890;2022-12-29T03:58:15;15.73;;;9.40;;
49948;SDS011;35840;45.982;8.890;2022-12-29T04:01:02;13.73;;;8.73;;
49948;SDS011;35840;45.982;8.890;2022-12-29T04:03:31;12.95;;;9.07;;
49948;SDS011;35840;45.982;8.890;2022-12-29T04:05:58;12.77;;;8.80;;
49948;SDS011;35840;45.982;8.890;2022-12-29T04:08:26;14.43;;;8.45;;
49948;SDS011;35840;45.982;8.890;2022-12-29T04:10:53;15.57;;;9.70;;
49948;SDS011;35840;45.982;8.890;2022-12-29T04:13:22;14.32;;;8.60;;
49948;SDS011;35840;45.982;8.890;2022-12-29T04:15:51;12.48;;;8.00;;
49948;SDS011;35840;45.982;8.890;2022-12-29T04:18:17;15.63;;;9.27;;
49948;SDS011;35840;45.982;8.890;2022-12-29T04:20:45;13.20;;;9.25;;
49948;SDS011;35840;45.982;8.890;2022-12-29T04:23:28;14.27;;;9.43;;
49948;SDS011;35840;45.982;8.890;2022-12-29T04:25:57;13.20;;;8.57;;
49948;SDS011;35840;45.982;8.890;2022-12-29T04:28:25;13.20;;;8.20;;
49948;SDS011;35840;45.982;8.890;2022-12-29T04:31:03;12.02;;;8.50;;
49948;SDS011;35840;45.982;8.890;2022-12-29T04:33:35;12.82;;;8.15;;
49948;SDS011;35840;45.982;8.890;2022-12-29T04:36:02;10.88;;;6.97;;
49948;SDS011;35840;45.982;8.890;2022-12-29T04:38:29;11.50;;;7.35;;
49948;SDS011;35840;45.982;8.890;2022-12-29T04:40:59;10.30;;;6.47;;
49948;SDS011;35840;45.982;8.890;2022-12-29T04:43:28;11.15;;;6.05;;
49948;SDS011;35840;45.982;8.890;2022-12-29T04:46:15;12.48;;;7.20;;
49948;SDS011;35840;45.982;8.890;2022-12-29T04:48:51;12.18;;;6.88;;
49948;SDS011;35840;45.982;8.890;2022-12-29T04:51:33;11.30;;;6.10;;
49948;SDS011;35840;45.982;8.890;2022-12-29T04:54:00;9.48;;;6.55;;
49948;SDS011;35840;45.982;8.890;2022-12-29T04:56:28;8.70;;;5.72;;
49948;SDS011;35840;45.982;8.890;2022-12-29T04:58:56;10.27;;;6.32;;
49948;SDS011;35840;45.982;8.890;2022-12-29T05:01:23;17.85;;;5.75;;
49948;SDS011;35840;45.982;8.890;2022-12-29T05:03:50;7.78;;;5.32;;
49948;SDS011;35840;45.982;8.890;2022-12-29T05:06:18;11.65;;;6.05;;
49948;SDS011;35840;45.982;8.890;2022-12-29T05:08:44;9.65;;;5.28;;
49948;SDS011;35840;45.982;8.890;2022-12-29T05:11:11;8.60;;;5.70;;
49948;SDS011;35840;45.982;8.890;2022-12-29T05:13:38;8.70;;;5.65;;
49948;SDS011;35840;45.982;8.890;2022-12-29T05:16:05;7.70;;;5.47;;
49948;SDS011;35840;45.982;8.890;2022-12-29T05:18:32;8.05;;;4.95;;
49948;SDS011;35840;45.982;8.890;2022-12-29T05:20:59;11.10;;;6.22;;
49948;SDS011;35840;45.982;8.890;2022-12-29T05:23:26;8.65;;;5.78;;
49948;SDS011;35840;45.982;8.890;2022-12-29T05:25:58;10.05;;;6.65;;
49948;SDS011;35840;45.982;8.890;2022-12-29T05:28:30;9.13;;;6.60;;
49948;SDS011;35840;45.982;8.890;2022-12-29T05:31:03;11.93;;;7.18;;
49948;SDS011;35840;45.982;8.890;2022-12-29T05:33:31;10.18;;;6.68;;
49948;SDS011;35840;45.982;8.890;2022-12-29T05:36:05;13.32;;;7.20;;
49948;SDS011;35840;45.982;8.890;2022-12-29T05:38:39;13.80;;;7.45;;
49948;SDS011;35840;45.982;8.890;2022-12-29T05:41:06;11.98;;;7.63;;
49948;SDS011;35840;45.982;8.890;2022-12-29T05:43:45;13.18;;;7.53;;
49948;SDS011;35840;45.982;8.890;2022-12-29T05:46:27;13.02;;;7.63;;
49948;SDS011;35840;45.982;8.890;2022-12-29T05:49:07;12.90;;;8.23;;
49948;SDS011;35840;45.982;8.890;2022-12-29T05:51:46;13.50;;;7.63;;
49948;SDS011;35840;45.982;8.890;2022-12-29T05:54:13;10.75;;;6.95;;
49948;SDS011;35840;45.982;8.890;2022-12-29T05:56:40;11.68;;;7.03;;
49948;SDS011;35840;45.982;8.890;2022-12-29T05:59:07;10.60;;;6.65;;
49948;SDS011;35840;45.982;8.890;2022-12-29T06:01:35;9.63;;;7.22;;
49948;SDS011;35840;45.982;8.890;2022-12-29T06:04:02;11.35;;;6.50;;
49948;SDS011;35840;45.982;8.890;2022-12-29T06:06:30;10.63;;;6.82;;
49948;SDS011;35840;45.982;8.890;2022-12-29T06:08:57;11.65;;;6.65;;
49948;SDS011;35840;45.982;8.890;2022-12-29T06:11:24;9.82;;;6.65;;
49948;SDS011;35840;45.982;8.890;2022-12-29T06:13:54;11.63;;;6.93;;
49948;SDS011;35840;45.982;8.890;2022-12-29T06:16:22;10.40;;;7.28;;
49948;SDS011;35840;45.982;8.890;2022-12-29T06:18:53;11.30;;;6.90;;
49948;SDS011;35840;45.982;8.890;2022-12-29T06:21:20;9.80;;;6.70;;
49948;SDS011;35840;45.982;8.890;2022-12-29T06:23:47;10.20;;;5.72;;
49948;SDS011;35840;45.982;8.890;2022-12-29T06:26:14;10.98;;;5.93;;
49948;SDS011;35840;45.982;8.890;2022-12-29T06:28:42;10.88;;;6.15;;
49948;SDS011;35840;45.982;8.890;2022-12-29T06:31:10;7.72;;;5.57;;
49948;SDS011;35840;45.982;8.890;2022-12-29T06:33:38;9.95;;;5.65;;
49948;SDS011;35840;45.982;8.890;2022-12-29T06:36:05;7.60;;;5.20;;
49948;SDS011;35840;45.982;8.890;2022-12-29T06:38:32;8.65;;;5.50;;
49948;SDS011;35840;45.982;8.890;2022-12-29T06:40:59;9.10;;;5.00;;
49948;SDS011;35840;45.982;8.890;2022-12-29T06:43:44;9.88;;;5.80;;
49948;SDS011;35840;45.982;8.890;2022-12-29T06:46:19;10.02;;;5.50;;
49948;SDS011;35840;45.982;8.890;2022-12-29T06:48:46;9.95;;;5.65;;
49948;SDS011;35840;45.982;8.890;2022-12-29T06:51:13;8.43;;;5.60;;
49948;SDS011;35840;45.982;8.890;2022-12-29T06:53:39;9.93;;;5.68;;
49948;SDS011;35840;45.982;8.890;2022-12-29T06:56:06;9.82;;;5.55;;
49948;SDS011;35840;45.982;8.890;2022-12-29T06:58:33;13.90;;;5.32;;
49948;SDS011;35840;45.982;8.890;2022-12-29T07:01:00;9.57;;;5.35;;
49948;SDS011;35840;45.982;8.890;2022-12-29T07:03:26;6.80;;;4.93;;
49948;SDS011;35840;45.982;8.890;2022-12-29T07:05:53;8.07;;;5.15;;
49948;SDS011;35840;45.982;8.890;2022-12-29T07:08:20;8.02;;;4.93;;
49948;SDS011;35840;45.982;8.890;2022-12-29T07:10:47;9.15;;;5.13;;
49948;SDS011;35840;45.982;8.890;2022-12-29T07:13:14;8.95;;;5.20;;
49948;SDS011;35840;45.982;8.890;2022-12-29T07:15:40;7.45;;;4.75;;
49948;SDS011;35840;45.982;8.890;2022-12-29T07:18:07;6.95;;;4.43;;
49948;SDS011;35840;45.982;8.890;2022-12-29T07:20:34;9.38;;;4.88;;
49948;SDS011;35840;45.982;8.890;2022-12-29T07:23:03;8.43;;;4.85;;
49948;SDS011;35840;45.982;8.890;2022-12-29T07:25:30;8.18;;;4.63;;
49948;SDS011;35840;45.982;8.890;2022-12-29T07:27:56;8.30;;;5.00;;
49948;SDS011;35840;45.982;8.890;2022-12-29T07:30:23;8.40;;;4.43;;
49948;SDS011;35840;45.982;8.890;2022-12-29T07:32:50;9.30;;;4.82;;
49948;SDS011;35840;45.982;8.890;2022-12-29T07:35:17;7.10;;;4.35;;
49948;SDS011;35840;45.982;8.890;2022-12-29T07:37:43;7.07;;;4.90;;
49948;SDS011;35840;45.982;8.890;2022-12-29T07:40:10;7.22;;;4.47;;
49948;SDS011;35840;45.982;8.890;2022-12-29T07:42:37;7.25;;;4.88;;
49948;SDS011;35840;45.982;8.890;2022-12-29T07:45:07;5.93;;;4.07;;
49948;SDS011;35840;45.982;8.890;2022-12-29T07:47:49;5.18;;;3.80;;
49948;SDS011;35840;45.982;8.890;2022-12-29T07:50:16;6.00;;;4.20;;
49948;SDS011;35840;45.982;8.890;2022-12-29T07:52:43;7.80;;;4.90;;
49948;SDS011;35840;45.982;8.890;2022-12-29T07:55:11;8.38;;;4.55;;
49948;SDS011;35840;45.982;8.890;2022-12-29T07:57:37;7.25;;;5.07;;
49948;SDS011;35840;45.982;8.890;2022-12-29T08:00:04;8.25;;;4.85;;
49948;SDS011;35840;45.982;8.890;2022-12-29T08:02:37;8.00;;;4.35;;
49948;SDS011;35840;45.982;8.890;2022-12-29T08:05:04;8.40;;;5.03;;
49948;SDS011;35840;45.982;8.890;2022-12-29T08:07:31;7.20;;;4.45;;
49948;SDS011;35840;45.982;8.890;2022-12-29T08:09:58;10.75;;;5.43;;
49948;SDS011;35840;45.982;8.890;2022-12-29T08:12:25;9.40;;;5.90;;
49948;SDS011;35840;45.982;8.890;2022-12-29T08:14:52;7.97;;;5.28;;
49948;SDS011;35840;45.982;8.890;2022-12-29T08:17:18;9.07;;;5.05;;
49948;SDS011;35840;45.982;8.890;2022-12-29T08:19:45;8.00;;;4.50;;
49948;SDS011;35840;45.982;8.890;2022-12-29T08:22:13;8.73;;;5.32;;
49948;SDS011;35840;45.982;8.890;2022-12-29T08:24:40;9.27;;;5.72;;
49948;SDS011;35840;45.982;8.890;2022-12-29T08:27:07;10.90;;;7.03;;
49948;SDS011;35840;45.982;8.890;2022-12-29T08:29:45;11.15;;;7.15;;
49948;SDS011;35840;45.982;8.890;2022-12-29T08:32:12;10.82;;;6.82;;
49948;SDS011;35840;45.982;8.890;2022-12-29T08:34:39;12.50;;;7.25;;
49948;SDS011;35840;45.982;8.890;2022-12-29T08:37:05;13.07;;;8.15;;
49948;SDS011;35840;45.982;8.890;2022-12-29T08:39:32;11.45;;;7.20;;
49948;SDS011;35840;45.982;8.890;2022-12-29T08:41:59;13.95;;;8.30;;
49948;SDS011;35840;45.982;8.890;2022-12-29T08:44:26;13.25;;;8.25;;
49948;SDS011;35840;45.982;8.890;2022-12-29T08:46:52;12.43;;;7.57;;
49948;SDS011;35840;45.982;8.890;2022-12-29T08:49:19;15.10;;;8.07;;
49948;SDS011;35840;45.982;8.890;2022-12-29T08:51:46;17.73;;;8.70;;
49948;SDS011;35840;45.982;8.890;2022-12-29T08:54:12;13.35;;;8.38;;
49948;SDS011;35840;45.982;8.890;2022-12-29T08:56:39;13.98;;;8.25;;
49948;SDS011;35840;45.982;8.890;2022-12-29T08:59:07;18.75;;;11.55;;
49948;SDS011;35840;45.982;8.890;2022-12-29T09:01:34;22.83;;;12.38;;
49948;SDS011;35840;45.982;8.890;2022-12-29T09:04:03;15.35;;;9.25;;
49948;SDS011;35840;45.982;8.890;2022-12-29T09:06:40;14.70;;;8.32;;
49948;SDS011;35840;45.982;8.890;2022-12-29T09:09:07;12.88;;;7.43;;
49948;SDS011;35840;45.982;8.890;2022-12-29T09:11:34;15.88;;;7.80;;
49948;SDS011;35840;45.982;8.890;2022-12-29T09:14:01;12.52;;;7.38;;
49948;SDS011;35840;45.982;8.890;2022-12-29T09:16:28;11.77;;;7.47;;
49948;SDS011;35840;45.982;8.890;2022-12-29T09:18:54;10.93;;;6.85;;
49948;SDS011;35840;45.982;8.890;2022-12-29T09:21:21;11.35;;;7.32;;
49948;SDS011;35840;45.982;8.890;2022-12-29T09:23:48;17.13;;;7.88;;
49948;SDS011;35840;45.982;8.890;2022-12-29T09:26:15;14.43;;;7.20;;
49948;SDS011;35840;45.982;8.890;2022-12-29T09:28:41;13.65;;;7.15;;
49948;SDS011;35840;45.982;8.890;2022-12-29T09:31:08;11.55;;;6.88;;
49948;SDS011;35840;45.982;8.890;2022-12-29T09:33:35;12.15;;;7.32;;
49948;SDS011;35840;45.982;8.890;2022-12-29T09:36:02;11.00;;;7.65;;
49948;SDS011;35840;45.982;8.890;2022-12-29T09:38:29;11.68;;;7.55;;
49948;SDS011;35840;45.982;8.890;2022-12-29T09:40:59;13.43;;;6.80;;
49948;SDS011;35840;45.982;8.890;2022-12-29T09:52:11;9.80;;;6.85;;
49948;SDS011;35840;45.982;8.890;2022-12-29T09:54:44;11.25;;;7.60;;
49948;SDS011;35840;45.982;8.890;2022-12-29T10:00:14;10.73;;;7.15;;
49948;SDS011;35840;45.982;8.890;2022-12-29T10:05:36;12.15;;;7.20;;
49948;SDS011;35840;45.982;8.890;2022-12-29T10:10:56;11.05;;;7.55;;
49948;SDS011;35840;45.982;8.890;2022-12-29T10:22:00;11.75;;;8.07;;
49948;SDS011;35840;45.982;8.890;2022-12-29T10:24:29;12.38;;;8.65;;
49948;SDS011;35840;45.982;8.890;2022-12-29T10:26:58;16.15;;;8.85;;
49948;SDS011;35840;45.982;8.890;2022-12-29T10:29:27;15.63;;;9.65;;
49948;SDS011;35840;45.982;8.890;2022-12-29T10:32:11;18.52;;;8.43;;
49948;SDS011;35840;45.982;8.890;2022-12-29T10:34:46;15.65;;;10.00;;
49948;SDS011;35840;45.982;8.890;2022-12-29T10:39:53;15.23;;;8.85;;
49948;SDS011;35840;45.982;8.890;2022-12-29T10:42:26;12.85;;;8.70;;
49948;SDS011;35840;45.982;8.890;2022-12-29T10:45:04;12.30;;;8.23;;
49948;SDS011;35840;45.982;8.890;2022-12-29T10:47:35;14.18;;;8.38;;
49948;SDS011;35840;45.982;8.890;2022-12-29T10:50:11;14.00;;;8.55;;
49948;SDS011;35840;45.982;8.890;2022-12-29T10:52:38;16.02;;;8.15;;
49948;SDS011;35840;45.982;8.890;2022-12-29T10:55:13;13.07;;;9.20;;
49948;SDS011;35840;45.982;8.890;2022-12-29T10:57:45;13.80;;;8.75;;
49948;SDS011;35840;45.982;8.890;2022-12-29T11:00:14;15.02;;;8.38;;
49948;SDS011;35840;45.982;8.890;2022-12-29T11:08:25;15.07;;;8.82;;
49948;SDS011;35840;45.982;8.890;2022-12-29T11:10:59;10.00;;;7.05;;
49948;SDS011;35840;45.982;8.890;2022-12-29T11:13:28;12.43;;;7.15;;
49948;SDS011;35840;45.982;8.890;2022-12-29T11:16:04;11.32;;;7.80;;
49948;SDS011;35840;45.982;8.890;2022-12-29T11:18:32;12.73;;;8.50;;
49948;SDS011;35840;45.982;8.890;2022-12-29T11:21:05;13.38;;;9.32;;
49948;SDS011;35840;45.982;8.890;2022-12-29T11:26:13;17.85;;;8.65;;
49948;SDS011;35840;45.982;8.890;2022-12-29T11:28:44;16.30;;;9.00;;
49948;SDS011;35840;45.982;8.890;2022-12-29T11:31:29;12.48;;;8.50;;
49948;SDS011;35840;45.982;8.890;2022-12-29T11:33:56;13.27;;;8.60;;
49948;SDS011;35840;45.982;8.890;2022-12-29T11:36:23;12.00;;;8.18;;
49948;SDS011;35840;45.982;8.890;2022-12-29T11:38:51;11.75;;;7.82;;
49948;SDS011;35840;45.982;8.890;2022-12-29T11:41:27;12.65;;;8.10;;
49948;SDS011;35840;45.982;8.890;2022-12-29T11:43:57;16.25;;;9.00;;
49948;SDS011;35840;45.982;8.890;2022-12-29T11:48:53;11.63;;;8.00;;
49948;SDS011;35840;45.982;8.890;2022-12-29T11:51:28;10.52;;;7.35;;
49948;SDS011;35840;45.982;8.890;2022-12-29T11:54:05;12.90;;;8.13;;
49948;SDS011;35840;45.982;8.890;2022-12-29T11:56:33;13.30;;;7.75;;
49948;SDS011;35840;45.982;8.890;2022-12-29T11:59:50;13.70;;;8.27;;
49948;SDS011;35840;45.982;8.890;2022-12-29T12:08:37;11.13;;;7.25;;
49948;SDS011;35840;45.982;8.890;2022-12-29T12:16:37;9.48;;;6.35;;
49948;SDS011;35840;45.982;8.890;2022-12-29T12:19:18;12.32;;;6.72;;
49948;SDS011;35840;45.982;8.890;2022-12-29T12:21:56;13.65;;;7.25;;
49948;SDS011;35840;45.982;8.890;2022-12-29T12:24:51;11.30;;;7.40;;
49948;SDS011;35840;45.982;8.890;2022-12-29T12:35:14;10.25;;;5.40;;
49948;SDS011;35840;45.982;8.890;2022-12-29T12:51:17;8.35;;;5.68;;
49948;SDS011;35840;45.982;8.890;2022-12-29T12:56:43;11.40;;;6.10;;
49948;SDS011;35840;45.982;8.890;2022-12-29T12:59:36;7.63;;;5.20;;
49948;SDS011;35840;45.982;8.890;2022-12-29T13:10:54;9.00;;;6.70;;
49948;SDS011;35840;45.982;8.890;2022-12-29T13:27:56;11.27;;;5.88;;
49948;SDS011;35840;45.982;8.890;2022-12-29T13:38:48;9.63;;;6.80;;
49948;SDS011;35840;45.982;8.890;2022-12-29T13:41:47;7.30;;;5.43;;
49948;SDS011;35840;45.982;8.890;2022-12-29T13:46:54;10.10;;;6.25;;
49948;SDS011;35840;45.982;8.890;2022-12-29T13:49:25;11.23;;;7.00;;
49948;SDS011;35840;45.982;8.890;2022-12-29T13:51:57;14.13;;;9.02;;
49948;SDS011;35840;45.982;8.890;2022-12-29T13:57:08;11.40;;;8.70;;
49948;SDS011;35840;45.982;8.890;2022-12-29T14:08:00;10.93;;;8.25;;
49948;SDS011;35840;45.982;8.890;2022-12-29T14:10:36;12.93;;;8.60;;
49948;SDS011;35840;45.982;8.890;2022-12-29T14:13:06;12.40;;;8.05;;
49948;SDS011;35840;45.982;8.890;2022-12-29T14:15:44;13.77;;;7.72;;
49948;SDS011;35840;45.982;8.890;2022-12-29T14:18:24;10.52;;;6.93;;
49948;SDS011;35840;45.982;8.890;2022-12-29T14:20:56;9.75;;;6.95;;
49948;SDS011;35840;45.982;8.890;2022-12-29T14:23:28;9.65;;;6.50;;
49948;SDS011;35840;45.982;8.890;2022-12-29T14:28:34;8.95;;;5.95;;
49948;SDS011;35840;45.982;8.890;2022-12-29T14:31:52;11.68;;;7.00;;
49948;SDS011;35840;45.982;8.890;2022-12-29T14:36:38;9.40;;;6.85;;
49948;SDS011;35840;45.982;8.890;2022-12-29T14:44:45;8.90;;;6.30;;
49948;SDS011;35840;45.982;8.890;2022-12-29T14:47:57;9.73;;;6.90;;
49948;SDS011;35840;45.982;8.890;2022-12-29T14:53:01;9.32;;;5.80;;
49948;SDS011;35840;45.982;8.890;2022-12-29T15:00:59;14.30;;;8.38;;
49948;SDS011;35840;45.982;8.890;2022-12-29T15:03:30;17.58;;;9.93;;
49948;SDS011;35840;45.982;8.890;2022-12-29T15:06:09;18.70;;;10.50;;
49948;SDS011;35840;45.982;8.890;2022-12-29T15:08:39;18.10;;;8.90;;
49948;SDS011;35840;45.982;8.890;2022-12-29T15:11:14;13.50;;;8.95;;
49948;SDS011;35840;45.982;8.890;2022-12-29T15:13:43;12.13;;;7.93;;
49948;SDS011;35840;45.982;8.890;2022-12-29T15:16:21;13.45;;;9.50;;
49948;SDS011;35840;45.982;8.890;2022-12-29T15:18:53;14.90;;;8.55;;
49948;SDS011;35840;45.982;8.890;2022-12-29T15:21:27;15.32;;;8.77;;
49948;SDS011;35840;45.982;8.890;2022-12-29T15:23:56;14.10;;;9.40;;
49948;SDS011;35840;45.982;8.890;2022-12-29T15:26:23;16.27;;;9.88;;
49948;SDS011;35840;45.982;8.890;2022-12-29T15:29:04;12.80;;;7.95;;
49948;SDS011;35840;45.982;8.890;2022-12-29T15:31:31;12.10;;;7.60;;
49948;SDS011;35840;45.982;8.890;2022-12-29T15:34:02;11.05;;;7.07;;
49948;SDS011;35840;45.982;8.890;2022-12-29T15:36:37;14.68;;;8.35;;
49948;SDS011;35840;45.982;8.890;2022-12-29T15:39:18;13.52;;;8.23;;
49948;SDS011;35840;45.982;8.890;2022-12-29T15:41:48;11.18;;;8.07;;
49948;SDS011;35840;45.982;8.890;2022-12-29T15:47:08;11.95;;;7.90;;
49948;SDS011;35840;45.982;8.890;2022-12-29T15:49:41;12.32;;;7.90;;
49948;SDS011;35840;45.982;8.890;2022-12-29T15:52:09;11.77;;;7.80;;
49948;SDS011;35840;45.982;8.890;2022-12-29T15:54:38;14.20;;;8.43;;
49948;SDS011;35840;45.982;8.890;2022-12-29T15:57:19;12.55;;;8.18;;
49948;SDS011;35840;45.982;8.890;2022-12-29T15:59:49;14.93;;;9.35;;
49948;SDS011;35840;45.982;8.890;2022-12-29T16:02:16;14.68;;;8.98;;
49948;SDS011;35840;45.982;8.890;2022-12-29T16:04:44;12.82;;;8.75;;
49948;SDS011;35840;45.982;8.890;2022-12-29T16:07:32;14.90;;;8.75;;
49948;SDS011;35840;45.982;8.890;2022-12-29T16:10:22;13.80;;;8.40;;
49948;SDS011;35840;45.982;8.890;2022-12-29T16:12:51;16.60;;;8.35;;
49948;SDS011;35840;45.982;8.890;2022-12-29T16:15:18;14.52;;;8.38;;
49948;SDS011;35840;45.982;8.890;2022-12-29T16:17:46;14.85;;;9.05;;
49948;SDS011;35840;45.982;8.890;2022-12-29T16:20:21;11.77;;;8.13;;
49948;SDS011;35840;45.982;8.890;2022-12-29T16:22:59;13.68;;;7.72;;
49948;SDS011;35840;45.982;8.890;2022-12-29T16:25:30;15.43;;;7.78;;
49948;SDS011;35840;45.982;8.890;2022-12-29T16:28:01;11.23;;;7.60;;
49948;SDS011;35840;45.982;8.890;2022-12-29T16:30:41;13.25;;;7.82;;
49948;SDS011;35840;45.982;8.890;2022-12-29T16:33:28;16.42;;;8.60;;
49948;SDS011;35840;45.982;8.890;2022-12-29T16:35:58;13.75;;;7.45;;
49948;SDS011;35840;45.982;8.890;2022-12-29T16:38:30;13.40;;;6.80;;
49948;SDS011;35840;45.982;8.890;2022-12-29T16:41:00;8.63;;;5.93;;
49948;SDS011;35840;45.982;8.890;2022-12-29T16:43:34;13.73;;;8.43;;
49948;SDS011;35840;45.982;8.890;2022-12-29T16:48:55;13.82;;;8.75;;
49948;SDS011;35840;45.982;8.890;2022-12-29T16:51:30;13.63;;;8.77;;
49948;SDS011;35840;45.982;8.890;2022-12-29T16:53:59;12.13;;;8.02;;
49948;SDS011;35840;45.982;8.890;2022-12-29T16:56:28;13.80;;;7.57;;
49948;SDS011;35840;45.982;8.890;2022-12-29T16:59:04;11.07;;;7.43;;
49948;SDS011;35840;45.982;8.890;2022-12-29T17:01:37;16.25;;;7.88;;
49948;SDS011;35840;45.982;8.890;2022-12-29T17:04:06;16.30;;;8.10;;
49948;SDS011;35840;45.982;8.890;2022-12-29T17:06:37;12.95;;;8.05;;
49948;SDS011;35840;45.982;8.890;2022-12-29T17:09:37;12.40;;;7.85;;
49948;SDS011;35840;45.982;8.890;2022-12-29T17:11:58;15.23;;;10.10;;
49948;SDS011;35840;45.982;8.890;2022-12-29T17:19:56;13.23;;;8.88;;
49948;SDS011;35840;45.982;8.890;2022-12-29T17:22:29;16.35;;;9.80;;
49948;SDS011;35840;45.982;8.890;2022-12-29T17:24:57;14.57;;;8.63;;
49948;SDS011;35840;45.982;8.890;2022-12-29T17:27:46;17.67;;;8.60;;
49948;SDS011;35840;45.982;8.890;2022-12-29T17:30:17;14.55;;;8.85;;
49948;SDS011;35840;45.982;8.890;2022-12-29T17:32:48;15.75;;;8.02;;
49948;SDS011;35840;45.982;8.890;2022-12-29T17:35:19;11.73;;;6.82;;
49948;SDS011;35840;45.982;8.890;2022-12-29T17:37:47;13.45;;;7.25;;
49948;SDS011;35840;45.982;8.890;2022-12-29T17:40:18;9.90;;;7.45;;
49948;SDS011;35840;45.982;8.890;2022-12-29T17:42:48;12.88;;;7.00;;
49948;SDS011;35840;45.982;8.890;2022-12-29T17:45:19;12.77;;;7.13;;
49948;SDS011;35840;45.982;8.890;2022-12-29T17:47:57;12.50;;;6.55;;
49948;SDS011;35840;45.982;8.890;2022-12-29T17:50:29;10.65;;;6.70;;
49948;SDS011;35840;45.982;8.890;2022-12-29T17:53:04;9.43;;;6.45;;
49948;SDS011;35840;45.982;8.890;2022-12-29T17:58:26;13.27;;;7.82;;
49948;SDS011;35840;45.982;8.890;2022-12-29T18:00:53;15.02;;;7.72;;
49948;SDS011;35840;45.982;8.890;2022-12-29T18:03:27;15.57;;;9.10;;
49948;SDS011;35840;45.982;8.890;2022-12-29T18:05:56;15.95;;;10.35;;
49948;SDS011;35840;45.982;8.890;2022-12-29T18:08:23;14.15;;;9.02;;